Purki — 9HA2386 — position and weather

sailwx.info

Track history (hours):
 
Tides and Currents Weather Stations Pressure Air Temp Water Temp Dewpoint Dewpoint Depression Visibility Wind Speed Wind Dir Waves Ship Positions

Purki

Last reported at 2015-Mar-28 08:29 UTC. Time now 2015-Mar-29 01:05 UTC.
Position N 37°15' E 024°04'.

Length 146 m; draft 9 m.

Type: Cargo ship. MMSI: 248495000.

Date/timePositionNaut miles runAvg speedWind from/ knotsBaromVisibWave heightAir tempDewpointWater temp
2015-Mar-28 08:29N 37°15' E 024°04'1713.3
2015-Mar-28 07:12N 37°28' E 024°18'1513.4
2015-Mar-28 06:04N 37°40' E 024°29'1214.0
2015-Mar-28 05:10N 37°52' E 024°34'5 7.6
2015-Mar-28 04:32N 37°57' E 024°36'25312.0
2015-Mar-27 07:27N 40°53' E 028°30'9 9.6
2015-Mar-27 06:29N 40°58' E 028°41'0 0.0
2015-Mar-26 15:06N 40°58' E 028°41'0 0.0
2015-Mar-26 12:12N 40°58' E 028°41'0 0.0
2015-Mar-26 11:24N 40°58' E 028°41'1 0.3
2015-Mar-26 08:28N 40°57' E 028°41'1011.3
2015-Mar-26 07:33N 40°47' E 028°39'1514.7
2015-Mar-26 06:33N 40°32' E 028°44'1414.0
2015-Mar-26 05:33N 40°25' E 028°60'4 3.7
2015-Mar-26 04:33N 40°25' E 029°05'0 0.0
2015-Mar-26 03:33N 40°25' E 029°05'0 0.0
2015-Mar-26 02:33N 40°25' E 029°05'0 0.0
2015-Mar-26 01:33N 40°25' E 029°05'0 0.0
2015-Mar-26 00:31N 40°25' E 029°05'0 0.0
2015-Mar-25 23:33N 40°25' E 029°05'3 1.9
2015-Mar-25 22:12N 40°25' E 029°01'2613.1
2015-Mar-25 20:12N 40°27' E 028°27'  
2015-Mar-21 09:28N 35°56' E 032°55'2613.2
2015-Mar-21 07:32N 35°33' E 032°41'  
Track history (hours):
 
Tides and Currents Weather Stations Pressure Air Temp Water Temp Dewpoint Dewpoint Depression Visibility Wind Speed Wind Dir Waves Ship Positions

Purki

Last reported at 2015-Mar-28 08:29 UTC. Time now 2015-Mar-29 01:05 UTC.
Position N 37°15' E 024°04'.

Length 146 m; draft 9 m.

Type: Cargo ship. MMSI: 248495000.

Date/timePositionNaut miles runAvg speedWind from/ knotsBaromVisibWave heightAir tempDewpointWater temp
2015-Mar-28 08:29N 37°15' E 024°04'1713.3
2015-Mar-28 07:12N 37°28' E 024°18'1513.4
2015-Mar-28 06:04N 37°40' E 024°29'1214.0
2015-Mar-28 05:10N 37°52' E 024°34'5 7.6
2015-Mar-28 04:32N 37°57' E 024°36'25312.0
2015-Mar-27 07:27N 40°53' E 028°30'9 9.6
2015-Mar-27 06:29N 40°58' E 028°41'0 0.0
2015-Mar-26 15:06N 40°58' E 028°41'0 0.0
2015-Mar-26 12:12N 40°58' E 028°41'0 0.0
2015-Mar-26 11:24N 40°58' E 028°41'1 0.3
2015-Mar-26 08:28N 40°57' E 028°41'1011.3
2015-Mar-26 07:33N 40°47' E 028°39'1514.7
2015-Mar-26 06:33N 40°32' E 028°44'1414.0
2015-Mar-26 05:33N 40°25' E 028°60'4 3.7
2015-Mar-26 04:33N 40°25' E 029°05'0 0.0
2015-Mar-26 03:33N 40°25' E 029°05'0 0.0
2015-Mar-26 02:33N 40°25' E 029°05'0 0.0
2015-Mar-26 01:33N 40°25' E 029°05'0 0.0
2015-Mar-26 00:31N 40°25' E 029°05'0 0.0
2015-Mar-25 23:33N 40°25' E 029°05'3 1.9
2015-Mar-25 22:12N 40°25' E 029°01'2613.1
2015-Mar-25 20:12N 40°27' E 028°27'  
2015-Mar-21 09:28N 35°56' E 032°55'2613.2
2015-Mar-21 07:32N 35°33' E 032°41'  

Dump ship's entire track history